createdAt,value
2022-10-09T00:01:26.152Z,6.00
2022-10-09T00:03:54.357Z,5.18
2022-10-09T00:06:24.929Z,6.15
2022-10-09T00:08:51.654Z,5.85
2022-10-09T00:11:21.275Z,5.88
2022-10-09T00:13:48.277Z,6.30
2022-10-09T00:16:17.165Z,6.40
2022-10-09T00:18:44.701Z,6.10
2022-10-09T00:23:43.462Z,5.50
2022-10-09T00:26:10.122Z,5.97
2022-10-09T00:28:38.728Z,5.68
2022-10-09T00:31:07.750Z,5.68
2022-10-09T00:33:35.218Z,5.85
2022-10-09T00:38:36.741Z,5.65
2022-10-09T00:41:03.544Z,5.65
2022-10-09T00:43:44.173Z,5.80
2022-10-09T00:46:22.925Z,6.00
2022-10-09T00:49:03.817Z,5.53
2022-10-09T00:51:31.208Z,5.80
2022-10-09T00:53:59.633Z,5.68
2022-10-09T00:56:26.449Z,5.43
2022-10-09T00:58:56.018Z,5.93
2022-10-09T01:01:22.660Z,5.57
2022-10-09T01:03:49.261Z,5.25
2022-10-09T01:06:51.476Z,5.77
2022-10-09T01:09:19.919Z,5.50
2022-10-09T01:12:06.661Z,5.55
2022-10-09T01:14:39.453Z,5.93
2022-10-09T01:17:24.800Z,5.30
2022-10-09T01:19:57.757Z,5.95
2022-10-09T01:22:37.693Z,5.85
2022-10-09T01:25:07.132Z,5.75
2022-10-09T01:27:36.101Z,5.65
2022-10-09T01:30:09.650Z,5.18
2022-10-09T01:32:50.291Z,5.93
2022-10-09T01:35:18.006Z,5.60
2022-10-09T01:40:17.354Z,5.65
2022-10-09T01:42:46.482Z,5.95
2022-10-09T01:45:14.837Z,5.97
2022-10-09T01:47:41.556Z,5.50
2022-10-09T01:50:26.040Z,6.07
2022-10-09T01:53:03.955Z,5.57
2022-10-09T01:55:52.015Z,5.70
2022-10-09T01:58:37.506Z,5.70
2022-10-09T02:01:09.093Z,5.90
2022-10-09T02:03:38.566Z,6.13
2022-10-09T02:06:07.896Z,5.47
2022-10-09T02:08:36.639Z,6.30
2022-10-09T02:11:04.016Z,5.72
2022-10-09T02:16:04.682Z,5.57
2022-10-09T02:18:40.283Z,5.82
2022-10-09T02:21:35.901Z,5.30
2022-10-09T02:24:05.139Z,6.40
2022-10-09T02:26:32.576Z,5.47
2022-10-09T02:31:32.109Z,5.47
2022-10-09T02:34:01.745Z,5.78
2022-10-09T02:36:29.292Z,5.75
2022-10-09T02:38:56.378Z,5.75
2022-10-09T02:41:23.474Z,5.82
2022-10-09T02:43:50.586Z,5.60
2022-10-09T02:46:17.516Z,5.60
2022-10-09T02:48:44.299Z,5.93
2022-10-09T02:51:10.854Z,6.50
2022-10-09T02:53:37.396Z,5.90
2022-10-09T02:56:03.944Z,6.00
2022-10-09T02:58:32.359Z,6.22
2022-10-09T03:00:58.994Z,6.05
2022-10-09T03:03:25.930Z,6.18
2022-10-09T03:06:04.090Z,5.70
2022-10-09T03:08:31.066Z,6.13
2022-10-09T03:10:57.696Z,6.47
2022-10-09T03:13:24.345Z,6.43
2022-10-09T03:15:50.890Z,7.20
2022-10-09T03:18:17.522Z,6.10
2022-10-09T03:20:44.093Z,5.50
2022-10-09T03:23:11.130Z,6.00
2022-10-09T03:25:37.877Z,5.75
2022-10-09T03:28:05.000Z,5.55
2022-10-09T03:30:31.615Z,6.78
2022-10-09T03:32:58.155Z,7.80
2022-10-09T03:35:24.665Z,7.73
2022-10-09T03:37:51.216Z,8.20
2022-10-09T03:40:18.430Z,6.70
2022-10-09T03:42:44.960Z,7.28
2022-10-09T03:45:11.485Z,7.97
2022-10-09T03:47:38.006Z,8.87
2022-10-09T03:50:04.975Z,8.73
2022-10-09T03:52:31.519Z,8.20
2022-10-09T03:54:58.042Z,8.17
2022-10-09T03:57:24.539Z,6.10
2022-10-09T03:59:51.093Z,7.80
2022-10-09T04:02:17.730Z,7.28
2022-10-09T04:04:44.255Z,8.40
2022-10-09T04:07:10.769Z,8.17
2022-10-09T04:09:37.353Z,7.07
2022-10-09T04:12:04.071Z,6.05
2022-10-09T04:14:30.610Z,6.70
2022-10-09T04:16:57.149Z,6.00
2022-10-09T04:19:23.660Z,6.40
2022-10-09T04:21:50.156Z,6.23
2022-10-09T04:24:16.804Z,6.67
2022-10-09T04:26:43.312Z,6.70
2022-10-09T04:29:11.245Z,7.33
2022-10-09T04:31:37.819Z,6.85
2022-10-09T04:34:04.477Z,7.20
2022-10-09T04:36:31.050Z,7.03
2022-10-09T04:38:57.682Z,5.85
2022-10-09T04:41:24.218Z,7.90
2022-10-09T04:43:55.502Z,7.70
2022-10-09T04:46:23.130Z,8.43
2022-10-09T04:48:49.933Z,8.30
2022-10-09T04:51:17.884Z,8.15
2022-10-09T04:53:45.188Z,7.35
2022-10-09T04:56:15.419Z,7.05
2022-10-09T04:58:42.323Z,7.10
2022-10-09T05:01:11.804Z,7.35
2022-10-09T05:03:38.636Z,7.50
2022-10-09T05:06:08.276Z,5.60
2022-10-09T05:08:35.237Z,6.85
2022-10-09T05:11:06.876Z,7.63
2022-10-09T05:13:36.678Z,8.93
2022-10-09T05:16:05.437Z,16.40
2022-10-09T05:18:32.033Z,42.45
2022-10-09T05:20:58.632Z,25.97
2022-10-09T05:23:25.507Z,15.70
2022-10-09T05:26:00.007Z,12.55
2022-10-09T05:28:27.218Z,10.73
2022-10-09T05:30:53.849Z,11.88
2022-10-09T05:33:20.691Z,8.57
2022-10-09T05:35:54.993Z,10.85
2022-10-09T05:38:22.694Z,10.98
2022-10-09T05:41:00.196Z,11.13
2022-10-09T05:43:47.183Z,11.20
2022-10-09T05:48:43.579Z,9.77
2022-10-09T05:51:15.903Z,9.55
2022-10-09T05:53:44.027Z,9.60
2022-10-09T05:56:12.366Z,9.85
2022-10-09T05:58:38.890Z,21.85
2022-10-09T06:01:05.645Z,23.30
2022-10-09T06:03:32.243Z,24.10
2022-10-09T06:06:05.993Z,19.70
2022-10-09T06:08:34.243Z,21.10
2022-10-09T06:11:15.098Z,25.90
2022-10-09T06:13:43.504Z,29.25
2022-10-09T06:16:11.815Z,27.90
2022-10-09T06:18:39.800Z,28.45
2022-10-09T06:21:06.951Z,54.30
2022-10-09T06:23:34.635Z,55.33
2022-10-09T06:26:03.899Z,33.40
2022-10-09T06:28:31.943Z,24.30
2022-10-09T06:31:25.953Z,18.85
2022-10-09T06:33:53.354Z,14.30
2022-10-09T06:38:49.093Z,12.02
2022-10-09T06:41:22.895Z,10.27
2022-10-09T06:43:57.734Z,10.48
2022-10-09T06:46:30.355Z,9.65
2022-10-09T06:48:59.399Z,7.22
2022-10-09T06:51:28.206Z,8.07
2022-10-09T06:53:57.802Z,8.48
2022-10-09T06:56:26.589Z,7.10
2022-10-09T06:58:53.410Z,8.27
2022-10-09T07:01:26.855Z,10.93
2022-10-09T07:03:59.150Z,12.60
2022-10-09T07:06:28.190Z,8.05
2022-10-09T07:09:02.857Z,7.40
2022-10-09T07:11:33.263Z,8.40
2022-10-09T07:14:02.387Z,8.15
2022-10-09T07:16:31.507Z,6.90
2022-10-09T07:19:01.099Z,7.00
2022-10-09T07:21:27.692Z,6.95
2022-10-09T07:23:54.362Z,6.53
2022-10-09T07:26:24.065Z,7.25
2022-10-09T07:28:51.476Z,7.13
2022-10-09T07:31:18.462Z,7.20
2022-10-09T07:33:48.667Z,6.75
2022-10-09T07:36:15.283Z,7.10
2022-10-09T07:38:42.515Z,7.35
2022-10-09T07:41:11.668Z,7.20
2022-10-09T07:43:40.075Z,7.85
2022-10-09T07:46:09.997Z,7.18
2022-10-09T07:48:36.709Z,7.13
2022-10-09T07:51:20.961Z,6.47
2022-10-09T07:53:47.861Z,6.07
2022-10-09T07:56:29.819Z,6.05
2022-10-09T07:58:58.747Z,6.85
2022-10-09T08:01:27.980Z,6.45
2022-10-09T08:03:55.449Z,6.28
2022-10-09T08:06:22.371Z,6.47
2022-10-09T08:08:50.869Z,6.65
2022-10-09T08:11:19.012Z,5.45
2022-10-09T08:13:46.948Z,6.43
2022-10-09T08:16:14.874Z,6.90
2022-10-09T08:18:41.697Z,6.72
2022-10-09T08:21:14.530Z,7.25
2022-10-09T08:23:41.277Z,5.82
2022-10-09T08:26:16.054Z,6.80
2022-10-09T08:28:43.347Z,6.22
2022-10-09T08:31:14.383Z,5.40
2022-10-09T08:33:41.498Z,5.72
2022-10-09T08:36:10.214Z,5.47
2022-10-09T08:38:47.062Z,5.55
2022-10-09T08:41:16.620Z,4.95
2022-10-09T08:43:48.065Z,4.63
2022-10-09T08:46:24.854Z,4.65
2022-10-09T08:48:53.510Z,4.75
2022-10-09T08:51:35.170Z,5.00
2022-10-09T08:54:04.148Z,4.97
2022-10-09T08:56:33.274Z,5.00
2022-10-09T08:59:01.637Z,4.63
2022-10-09T09:01:48.311Z,4.47
2022-10-09T09:09:31.929Z,4.40
2022-10-09T09:12:17.326Z,4.38
2022-10-09T09:15:05.178Z,4.63
2022-10-09T09:17:44.289Z,5.00
2022-10-09T09:20:30.090Z,4.70
2022-10-09T09:23:01.083Z,4.00
2022-10-09T09:25:41.153Z,4.60
2022-10-09T09:28:20.543Z,5.38
2022-10-09T09:30:52.795Z,4.90
2022-10-09T09:33:44.936Z,5.03
2022-10-09T09:36:38.803Z,5.25
2022-10-09T09:41:54.464Z,4.90
2022-10-09T09:44:21.373Z,5.18
2022-10-09T09:46:49.448Z,4.80
2022-10-09T09:49:27.187Z,4.93
2022-10-09T09:52:00.189Z,5.05
2022-10-09T09:54:30.565Z,5.25
2022-10-09T09:57:12.768Z,4.47
2022-10-09T09:59:43.260Z,4.75
2022-10-09T10:02:14.666Z,4.50
2022-10-09T10:05:27.517Z,4.95
2022-10-09T10:07:54.700Z,4.78
2022-10-09T10:12:52.857Z,4.55
2022-10-09T10:15:25.636Z,4.38
2022-10-09T10:18:14.090Z,4.47
2022-10-09T10:20:46.763Z,4.20
2022-10-09T10:23:51.076Z,4.38
2022-10-09T10:26:21.553Z,4.00
2022-10-09T10:29:25.320Z,4.00
2022-10-09T10:32:22.710Z,3.97
2022-10-09T10:34:55.445Z,4.25
2022-10-09T10:37:27.928Z,4.35
2022-10-09T10:40:01.342Z,3.95
2022-10-09T10:42:57.359Z,3.40
2022-10-09T10:46:00.984Z,3.80
2022-10-09T10:48:40.091Z,7.20
2022-10-09T10:51:24.850Z,4.38
2022-10-09T10:53:51.335Z,10.40
2022-10-09T10:56:35.916Z,3.80
2022-10-09T10:59:20.968Z,3.60
2022-10-09T11:02:04.039Z,3.35
2022-10-09T11:04:51.772Z,4.50
2022-10-09T11:07:34.260Z,5.20
2022-10-09T11:10:21.455Z,3.47
2022-10-09T11:12:48.631Z,5.95
2022-10-09T11:15:21.278Z,3.22
2022-10-09T11:18:05.965Z,3.25
2022-10-09T11:21:01.692Z,3.92
2022-10-09T11:23:37.382Z,4.20
2022-10-09T11:26:36.523Z,3.90
2022-10-09T11:29:10.911Z,4.55
2022-10-09T11:32:03.930Z,3.50
2022-10-09T11:34:45.847Z,3.30
2022-10-09T11:37:21.109Z,6.05
2022-10-09T11:39:47.954Z,3.25
2022-10-09T11:42:19.878Z,3.33
2022-10-09T11:44:53.424Z,2.95
2022-10-09T11:47:44.709Z,3.70
2022-10-09T11:50:35.970Z,3.17
2022-10-09T11:53:09.199Z,3.92
2022-10-09T11:55:36.564Z,4.22
2022-10-09T11:58:24.683Z,4.38
2022-10-09T12:00:54.786Z,4.57
2022-10-09T12:03:34.889Z,3.88
2022-10-09T12:06:07.440Z,3.63
2022-10-09T12:08:34.551Z,3.63
2022-10-09T12:13:39.164Z,3.53
2022-10-09T12:16:07.485Z,3.40
2022-10-09T12:18:44.243Z,3.50
2022-10-09T12:21:29.011Z,3.53
2022-10-09T12:23:55.915Z,3.10
2022-10-09T12:26:25.125Z,3.53
2022-10-09T12:28:56.399Z,3.75
2022-10-09T12:31:28.760Z,2.90
2022-10-09T12:34:01.725Z,2.60
2022-10-09T12:36:31.414Z,3.20
2022-10-09T12:39:12.316Z,3.58
2022-10-09T12:41:39.430Z,3.38
2022-10-09T12:46:39.262Z,3.70
2022-10-09T12:49:18.909Z,3.40
2022-10-09T12:51:55.377Z,3.25
2022-10-09T12:54:25.159Z,3.97
2022-10-09T12:56:57.173Z,3.30
2022-10-09T12:59:26.260Z,3.38
2022-10-09T13:01:57.751Z,3.78
2022-10-09T13:04:31.517Z,3.67
2022-10-09T13:07:02.112Z,3.40
2022-10-09T13:09:34.966Z,3.00
2022-10-09T13:12:25.966Z,3.10
2022-10-09T13:14:57.245Z,2.90
2022-10-09T13:17:39.213Z,3.13
2022-10-09T13:20:11.866Z,3.10
2022-10-09T13:22:39.531Z,3.40
2022-10-09T13:25:06.718Z,3.42
2022-10-09T13:30:02.271Z,3.00
2022-10-09T13:32:28.883Z,3.28
2022-10-09T13:34:55.659Z,2.95
2022-10-09T13:37:24.163Z,2.88
2022-10-09T13:39:55.312Z,2.53
2022-10-09T13:42:25.218Z,2.60
2022-10-09T13:44:51.854Z,2.50
2022-10-09T13:47:23.385Z,2.70
2022-10-09T13:49:50.902Z,3.00
2022-10-09T13:52:17.689Z,2.85
2022-10-09T13:54:44.304Z,2.60
2022-10-09T13:57:10.838Z,2.55
2022-10-09T13:59:37.986Z,2.50
2022-10-09T14:04:31.184Z,2.30
2022-10-09T14:06:57.797Z,3.30
2022-10-09T14:09:24.523Z,2.67
2022-10-09T14:11:51.085Z,2.70
2022-10-09T14:14:17.630Z,2.55
2022-10-09T14:16:44.339Z,2.95
2022-10-09T14:19:11.757Z,3.10
2022-10-09T14:21:38.461Z,2.78
2022-10-09T14:24:05.653Z,2.80
2022-10-09T14:29:01.046Z,2.10
2022-10-09T14:31:28.545Z,2.35
2022-10-09T14:33:58.369Z,2.40
2022-10-09T14:36:25.599Z,2.50
2022-10-09T14:38:52.197Z,2.58
2022-10-09T14:41:19.932Z,2.70
2022-10-09T14:43:48.024Z,2.53
2022-10-09T14:46:17.178Z,2.67
2022-10-09T14:48:45.544Z,3.05
2022-10-09T14:51:14.717Z,3.08
2022-10-09T14:53:41.896Z,3.17
2022-10-09T14:58:39.076Z,8.50
2022-10-09T15:01:06.580Z,5.07
2022-10-09T15:03:34.572Z,3.90
2022-10-09T15:06:04.753Z,4.00
2022-10-09T15:08:36.600Z,4.28
2022-10-09T15:11:03.627Z,4.68
2022-10-09T15:13:31.713Z,4.15
2022-10-09T15:16:00.097Z,4.15
2022-10-09T15:18:27.806Z,4.18
2022-10-09T15:20:54.452Z,4.47
2022-10-09T15:23:21.144Z,3.63
2022-10-09T15:25:51.574Z,4.07
2022-10-09T15:28:19.240Z,3.58
2022-10-09T15:30:47.016Z,4.57
2022-10-09T15:33:13.652Z,4.20
2022-10-09T15:35:40.528Z,4.45
2022-10-09T15:38:07.860Z,5.00
2022-10-09T15:40:46.472Z,4.95
2022-10-09T15:43:15.048Z,4.93
2022-10-09T15:45:42.292Z,4.30
2022-10-09T15:50:39.113Z,4.97
2022-10-09T15:53:10.986Z,4.80
2022-10-09T15:55:38.204Z,4.53
2022-10-09T15:58:05.289Z,4.55
2022-10-09T16:00:36.673Z,4.40
2022-10-09T16:03:03.755Z,4.60
2022-10-09T16:05:30.452Z,4.45
2022-10-09T16:07:57.131Z,4.90
2022-10-09T16:10:23.651Z,5.47
2022-10-09T16:12:50.513Z,5.25
2022-10-09T16:17:44.026Z,5.50
2022-10-09T16:20:10.589Z,6.07
2022-10-09T16:22:37.167Z,7.25
2022-10-09T16:25:03.912Z,7.53
2022-10-09T16:27:30.696Z,7.97
2022-10-09T16:29:57.253Z,6.93
2022-10-09T16:32:23.823Z,7.05
2022-10-09T16:34:50.412Z,7.10
2022-10-09T16:37:17.014Z,7.40
2022-10-09T16:39:45.237Z,7.20
2022-10-09T16:42:11.986Z,7.20
2022-10-09T16:44:38.673Z,7.60
2022-10-09T16:47:05.256Z,8.20
2022-10-09T16:49:31.849Z,8.07
2022-10-09T16:51:58.442Z,8.30
2022-10-09T16:54:24.972Z,8.35
2022-10-09T16:56:51.554Z,9.65
2022-10-09T16:59:18.307Z,9.63
2022-10-09T17:01:46.483Z,9.35
2022-10-09T17:04:13.156Z,9.50
2022-10-09T17:06:46.568Z,10.30
2022-10-09T17:09:14.324Z,10.38
2022-10-09T17:11:41.985Z,10.90
2022-10-09T17:16:38.366Z,11.00
2022-10-09T17:19:05.336Z,11.43
2022-10-09T17:21:34.528Z,11.23
2022-10-09T17:24:03.202Z,11.90
2022-10-09T17:26:30.345Z,11.65
2022-10-09T17:28:58.805Z,12.07
2022-10-09T17:31:26.885Z,11.93
2022-10-09T17:34:04.460Z,11.60
2022-10-09T17:36:34.344Z,11.38
2022-10-09T17:39:01.317Z,11.85
2022-10-09T17:41:28.324Z,11.80
2022-10-09T17:43:56.550Z,12.18
2022-10-09T17:46:25.055Z,12.27
2022-10-09T17:48:56.140Z,12.25
2022-10-09T17:51:26.051Z,13.27
2022-10-09T17:53:54.309Z,12.60
2022-10-09T17:56:20.924Z,12.35
2022-10-09T17:58:48.745Z,14.05
2022-10-09T18:01:16.832Z,13.40
2022-10-09T18:03:44.454Z,14.30
2022-10-09T18:06:14.271Z,12.88
2022-10-09T18:08:40.950Z,13.23
2022-10-09T18:11:10.564Z,13.15
2022-10-09T18:13:38.876Z,13.63
2022-10-09T18:16:07.772Z,12.60
2022-10-09T18:18:34.692Z,14.70
2022-10-09T18:21:06.143Z,15.73
2022-10-09T18:23:32.925Z,18.50
2022-10-09T18:26:00.025Z,18.65
2022-10-09T18:30:58.808Z,23.00
2022-10-09T18:33:25.422Z,22.98
2022-10-09T18:35:51.956Z,23.08
2022-10-09T18:38:18.475Z,22.37
2022-10-09T18:40:45.926Z,21.90
2022-10-09T18:43:12.907Z,20.45
2022-10-09T18:45:44.630Z,19.65
2022-10-09T18:48:11.537Z,19.92
2022-10-09T18:50:38.165Z,18.42
2022-10-09T18:53:04.921Z,17.92
2022-10-09T18:55:31.810Z,15.60
2022-10-09T18:58:01.763Z,15.75
2022-10-09T19:00:28.399Z,14.93
2022-10-09T19:02:55.059Z,13.10
2022-10-09T19:05:21.666Z,13.75
2022-10-09T19:07:48.480Z,14.43
2022-10-09T19:10:15.242Z,13.80
2022-10-09T19:12:42.723Z,13.38
2022-10-09T19:15:12.328Z,13.57
2022-10-09T19:17:39.257Z,12.93
2022-10-09T19:20:06.276Z,13.43
2022-10-09T19:22:32.835Z,12.93
2022-10-09T19:24:59.491Z,13.32
2022-10-09T19:27:26.853Z,13.48
2022-10-09T19:32:23.864Z,13.00
2022-10-09T19:34:50.693Z,13.13
2022-10-09T19:37:17.298Z,13.20
2022-10-09T19:39:48.405Z,13.23
2022-10-09T19:42:18.715Z,13.07
2022-10-09T19:44:45.994Z,11.88
2022-10-09T19:47:14.587Z,12.73
2022-10-09T19:49:41.682Z,14.02
2022-10-09T19:52:08.556Z,13.30
2022-10-09T19:54:36.012Z,12.73
2022-10-09T19:57:02.541Z,14.13
2022-10-09T19:59:29.931Z,13.37
2022-10-09T20:01:57.669Z,13.02
2022-10-09T20:04:24.847Z,12.20
2022-10-09T20:06:51.702Z,13.60
2022-10-09T20:09:18.448Z,13.23
2022-10-09T20:11:44.980Z,13.90
2022-10-09T20:14:11.567Z,13.48
2022-10-09T20:16:38.458Z,13.23
2022-10-09T20:19:05.256Z,14.02
2022-10-09T20:21:33.141Z,12.13
2022-10-09T20:24:01.338Z,14.07
2022-10-09T20:26:28.544Z,13.15
2022-10-09T20:28:55.384Z,12.77
2022-10-09T20:31:25.486Z,13.07
2022-10-09T20:33:53.402Z,13.63
2022-10-09T20:36:21.619Z,13.10
2022-10-09T20:38:48.914Z,13.48
2022-10-09T20:41:16.046Z,13.80
2022-10-09T20:43:42.736Z,13.52
2022-10-09T20:46:14.622Z,12.88
2022-10-09T20:48:42.482Z,13.35
2022-10-09T20:51:09.842Z,13.23
2022-10-09T20:56:08.269Z,14.25
2022-10-09T20:58:36.074Z,13.15
2022-10-09T21:01:11.605Z,12.88
2022-10-09T21:03:39.188Z,13.75
2022-10-09T21:06:08.041Z,14.10
2022-10-09T21:08:35.505Z,13.60
2022-10-09T21:11:06.257Z,13.63
2022-10-09T21:13:33.013Z,14.70
2022-10-09T21:15:59.527Z,14.23
2022-10-09T21:18:26.199Z,14.50
2022-10-09T21:20:52.707Z,14.50
2022-10-09T21:23:19.445Z,16.25
2022-10-09T21:25:47.905Z,15.57
2022-10-09T21:28:14.516Z,15.48
2022-10-09T21:30:41.846Z,15.48
2022-10-09T21:33:09.322Z,15.82
2022-10-09T21:38:19.375Z,15.82
2022-10-09T21:40:47.005Z,16.83
2022-10-09T21:43:13.807Z,16.40
2022-10-09T21:45:40.792Z,16.15
2022-10-09T21:48:07.670Z,16.48
2022-10-09T21:50:34.730Z,16.33
2022-10-09T21:53:01.308Z,16.00
2022-10-09T21:55:28.160Z,16.03
2022-10-09T21:57:54.877Z,15.68
2022-10-09T22:00:21.552Z,16.08
2022-10-09T22:02:48.434Z,16.08
2022-10-09T22:05:15.199Z,16.17
2022-10-09T22:07:41.722Z,15.68
2022-10-09T22:10:08.620Z,16.03
2022-10-09T22:12:35.213Z,16.70
2022-10-09T22:15:01.884Z,17.23
2022-10-09T22:17:28.500Z,16.25
2022-10-09T22:19:55.026Z,16.33
2022-10-09T22:22:23.713Z,17.53
2022-10-09T22:24:51.859Z,16.83
2022-10-09T22:27:18.742Z,17.27
2022-10-09T22:29:45.584Z,17.38
2022-10-09T22:32:12.134Z,17.40
2022-10-09T22:34:38.665Z,17.08
2022-10-09T22:37:05.283Z,17.07
2022-10-09T22:39:31.906Z,18.00
2022-10-09T22:41:58.419Z,17.67
2022-10-09T22:44:24.946Z,18.27
2022-10-09T22:46:51.835Z,18.07
2022-10-09T22:49:18.601Z,17.05
2022-10-09T22:51:46.127Z,17.33
2022-10-09T22:54:13.147Z,18.92
2022-10-09T22:56:42.797Z,18.75
2022-10-09T22:59:11.614Z,17.95
2022-10-09T23:01:48.460Z,18.08
2022-10-09T23:04:16.853Z,18.67
2022-10-09T23:06:44.989Z,18.33
2022-10-09T23:09:14.487Z,17.52
2022-10-09T23:11:41.390Z,17.90
2022-10-09T23:14:08.170Z,19.08
2022-10-09T23:16:34.901Z,18.83
2022-10-09T23:19:06.434Z,18.63
2022-10-09T23:21:34.934Z,18.55
2022-10-09T23:24:01.733Z,18.33
2022-10-09T23:26:30.505Z,18.88
2022-10-09T23:29:03.994Z,19.02
2022-10-09T23:31:31.077Z,18.85
2022-10-09T23:33:58.391Z,19.42
2022-10-09T23:36:27.336Z,18.48
2022-10-09T23:38:54.503Z,18.35
2022-10-09T23:41:23.475Z,19.52
2022-10-09T23:43:51.217Z,18.90
2022-10-09T23:46:20.956Z,18.77
2022-10-09T23:48:48.181Z,17.85
2022-10-09T23:51:15.631Z,19.15
2022-10-09T23:58:41.345Z,18.20
